Marinopolis, Brazil
Current Conditions -  °F | °C
As of 6:00 AM on Friday 24 Oct 2014 (Local Time) from SBAU Reporting Station
Clear Clear  
Wind Chill: 75°   Ceiling: Unl
Heat Index: 75°   Visibility: 6mi
Dew Point: 63°   Wind: 7mph
Humidity: 65%   Direction: 160°SSE
Pressure: 29.91"   Gusts: NA
Location:  20.44°S, 50.82°W
Report Text: SBAU 240800Z 16006KT CAVOK 24/17 Q1013
Loading
Personal Weather Stations






























Interactive Weather Map
Tropical Storm Tracking
New forecast layout! Learn more

10-Day Weather Forecast

Advertisements
Track Severe Weather on mobile